Herbert, Illinois
Current Conditions -  °F | °C
As of 11:35 AM on Friday 24 Oct 2014 (Local Time) from KDKB Reporting Station
Clear Clear  
Wind Chill: 57°   Ceiling: Unl
Heat Index: 57°   Visibility: 10mi
Dew Point: 49°   Wind: 5mph
Humidity: 76%   Direction: 200°SSW
Pressure: 30.06"   Gusts: NA
Location:  42.1119°N, 88.7806°W
Report Text: KDKB 241635Z AUTO 20004KT 10SM CLR 14/10 A3006 RMK AO2 T01370096
Loading
Personal Weather Stations






























Interactive Weather Map
Tropical Storm Tracking
New forecast layout! Learn more

10-Day Weather Forecast

Advertisements
Track Severe Weather on mobile